Time;durP1;ratioP1;P1;durP2;ratioP2;P2;SDS_P1;SDS_P2;PMS_P1;PMS_P2;Temp;Humidity;BMP_temperature;BMP_pressure;BME280_temperature;BME280_humidity;BME280_pressure;Samples;Min_cycle;Max_cycle;Signal;HPM_P1;HPM_P2
2023/04/17 00:01:59;;;;;;;3.30;3.00;;;;;;;6.40;100.00;96597.09;7398888;19;21201;-77
2023/04/17 00:04:29;;;;;;;2.90;2.70;;;;;;;6.17;100.00;96550.81;7394498;19;20822;-77
2023/04/17 00:06:58;;;;;;;4.57;3.17;;;;;;;6.43;100.00;96593.91;7398898;19;20456;-76
2023/04/17 00:09:25;;;;;;;3.07;2.80;;;;;;;5.95;100.00;96517.38;7395371;19;20386;-77
2023/04/17 00:11:52;;;;;;;5.17;3.80;;;;;;;6.33;100.00;96578.34;7397496;19;20372;-77
2023/04/17 00:14:18;;;;;;;4.37;3.60;;;;;;;6.24;100.00;96574.81;7394824;19;20514;-77
2023/04/17 00:16:46;;;;;;;3.30;3.00;;;;;;;6.46;100.00;96595.94;7395877;19;20717;-78
2023/04/17 00:19:13;;;;;;;4.10;3.60;;;;;;;6.26;100.00;96577.94;7396243;19;20377;-77
2023/04/17 00:21:40;;;;;;;4.13;3.73;;;;;;;6.42;100.00;96602.06;7396817;19;20409;-77
2023/04/17 00:24:06;;;;;;;5.10;4.60;;;;;;;6.49;100.00;96602.44;7394778;19;20429;-77
2023/04/17 00:26:33;;;;;;;4.33;3.83;;;;;;;6.34;100.00;96563.34;7397212;19;20376;-77
2023/04/17 00:29:01;;;;;;;5.23;3.03;;;;;;;6.26;100.00;96564.81;7395134;19;20427;-77
2023/04/17 00:31:29;;;;;;;3.60;3.17;;;;;;;6.13;100.00;96561.09;7396664;19;20753;-76
2023/04/17 00:33:57;;;;;;;3.53;3.23;;;;;;;6.07;100.00;96570.16;7394907;19;20411;-77
2023/04/17 00:36:26;;;;;;;5.37;3.17;;;;;;;6.19;100.00;96594.09;7398734;19;20669;-78
2023/04/17 00:38:52;;;;;;;3.10;2.90;;;;;;;5.99;100.00;96576.06;7395560;19;20439;-76
2023/04/17 00:41:19;;;;;;;3.43;3.13;;;;;;;5.86;100.00;96576.78;7393829;19;20908;-76
2023/04/17 00:43:46;;;;;;;3.13;2.80;;;;;;;5.60;100.00;96556.25;7395000;19;20440;-77
2023/04/17 00:46:14;;;;;;;3.90;2.90;;;;;;;5.79;100.00;96590.31;7393635;19;20722;-76
2023/04/17 00:48:42;;;;;;;3.40;3.10;;;;;;;5.52;100.00;96554.28;7395216;19;20401;-76
2023/04/17 00:51:10;;;;;;;4.20;3.03;;;;;;;5.51;100.00;96541.47;7391897;19;20488;-76
2023/04/17 00:53:37;;;;;;;3.60;3.30;;;;;;;5.56;100.00;96549.25;7396267;19;20397;-77
2023/04/17 00:56:05;;;;;;;3.47;2.90;;;;;;;5.66;100.00;96550.94;7393729;19;20380;-76
2023/04/17 00:58:32;;;;;;;5.53;3.60;;;;;;;5.90;100.00;96586.47;7395811;19;20369;-76
2023/04/17 01:00:59;;;;;;;3.97;3.67;;;;;;;5.82;100.00;96560.09;7393832;19;20756;-76
2023/04/17 01:03:28;;;;;;;3.60;3.30;;;;;;;6.01;100.00;96588.91;7394915;19;20773;-77
2023/04/17 01:05:56;;;;;;;4.97;3.50;;;;;;;5.49;100.00;96517.38;7394110;19;20461;-76
2023/04/17 01:08:23;;;;;;;4.20;3.83;;;;;;;5.65;100.00;96568.50;7395534;19;20376;-76
2023/04/17 01:10:50;;;;;;;4.17;3.33;;;;;;;5.46;100.00;96557.28;7392277;19;20361;-76
2023/04/17 01:13:17;;;;;;;3.67;3.10;;;;;;;5.42;100.00;96545.81;7394661;19;20957;-76
2023/04/17 01:15:45;;;;;;;3.73;3.43;;;;;;;5.00;100.00;96495.09;7393447;19;20400;-77
2023/04/17 01:18:12;;;;;;;3.27;3.00;;;;;;;5.62;100.00;96580.38;7395446;19;20379;-77
2023/04/17 01:20:39;;;;;;;3.33;3.03;;;;;;;5.16;100.00;96508.75;7393456;19;20747;-78
2023/04/17 01:23:07;;;;;;;3.73;3.10;;;;;;;5.63;100.00;96565.41;7394696;19;20380;-76
2023/04/17 01:25:34;;;;;;;3.00;2.80;;;;;;;5.38;100.00;96523.88;7393737;19;20372;-76
2023/04/17 01:28:01;;;;;;;5.57;4.97;;;;;;;5.61;100.00;96570.16;7396535;19;20763;-76
2023/04/17 01:30:28;;;;;;;3.40;3.10;;;;;;;5.63;100.00;96575.91;7399209;19;20380;-77
2023/04/17 01:33:00;;;;;;;3.70;3.40;;;;;;;5.34;100.00;96534.13;7402759;19;20536;-77
2023/04/17 01:35:28;;;;;;;3.90;3.60;;;;;;;5.34;100.00;96519.22;7401413;19;20384;-77
2023/04/17 01:37:55;;;;;;;3.60;3.30;;;;;;;5.73;100.00;96586.19;7402438;19;20385;-76
2023/04/17 01:40:22;;;;;;;3.10;2.83;;;;;;;5.27;100.00;96547.63;7401611;19;20413;-77
2023/04/17 01:42:48;;;;;;;4.67;3.37;;;;;;;5.35;100.00;96554.06;7403008;19;20372;-77
2023/04/17 01:45:15;;;;;;;4.77;3.30;;;;;;;5.46;100.00;96552.03;7398375;19;20432;-77
2023/04/17 01:47:42;;;;;;;3.60;3.30;;;;;;;5.61;100.00;96578.81;7402272;19;20368;-78
2023/04/17 01:50:10;;;;;;;4.37;3.80;;;;;;;5.40;100.00;96545.31;7399506;19;20904;-77
2023/04/17 01:52:38;;;;;;;4.27;3.77;;;;;;;5.68;100.00;96577.66;7402363;19;20362;-76
2023/04/17 01:55:06;;;;;;;3.57;3.27;;;;;;;5.72;100.00;96584.63;7398545;19;20443;-76
2023/04/17 01:57:33;;;;;;;3.60;3.30;;;;;;;5.30;100.00;96510.34;7399223;19;20881;-76
2023/04/17 01:59:59;;;;;;;3.77;3.47;;;;;;;5.71;100.00;96575.22;7401091;19;20704;-77
2023/04/17 02:02:38;;;;;;;3.87;3.57;;;;;;;5.66;100.00;96559.56;7401192;19;20902;-76
2023/04/17 02:05:08;;;;;;;3.70;3.10;;;;;;;5.59;100.00;96567.03;7398711;19;20420;-76
2023/04/17 02:07:35;;;;;;;7.23;3.77;;;;;;;5.45;100.00;96540.75;7401134;19;20487;-76
2023/04/17 02:10:02;;;;;;;3.67;3.37;;;;;;;5.37;100.00;96517.06;7400450;19;20401;-76
2023/04/17 02:12:29;;;;;;;5.73;4.17;;;;;;;5.69;100.00;96564.25;7399751;19;20377;-76
2023/04/17 02:14:59;;;;;;;4.77;4.37;;;;;;;5.71;100.00;96563.94;7400184;19;20426;-77
2023/04/17 02:17:27;;;;;;;4.10;3.70;;;;;;;5.58;100.00;96544.50;7399376;19;20400;-77
2023/04/17 02:19:54;;;;;;;4.33;3.93;;;;;;;5.77;100.00;96571.47;7400759;19;20442;-76
2023/04/17 02:22:21;;;;;;;4.77;4.00;;;;;;;5.73;100.00;96562.59;7400907;19;20385;-76
2023/04/17 02:24:47;;;;;;;4.33;3.93;;;;;;;5.78;100.00;96580.09;7398949;19;20416;-76
2023/04/17 02:27:15;;;;;;;4.17;3.80;;;;;;;5.87;100.00;96580.97;7399524;19;20377;-76
2023/04/17 02:29:42;;;;;;;4.17;3.77;;;;;;;5.73;100.00;96565.22;7402071;19;20356;-76
2023/04/17 02:32:09;;;;;;;5.70;3.90;;;;;;;5.49;100.00;96533.91;7399387;19;20440;-77
2023/04/17 02:34:36;;;;;;;4.70;4.30;;;;;;;5.74;100.00;96572.00;7399128;19;20428;-78
2023/04/17 02:37:03;;;;;;;4.10;3.50;;;;;;;5.82;100.00;96573.97;7400961;19;20371;-77
2023/04/17 02:39:32;;;;;;;8.53;3.77;;;;;;;5.74;100.00;96573.84;7399721;19;20377;-77
2023/04/17 02:42:01;;;;;;;3.90;3.60;;;;;;;5.68;100.00;96570.56;7399403;19;20437;-77
2023/04/17 02:44:28;;;;;;;5.57;3.80;;;;;;;5.66;100.00;96561.41;7398827;19;20428;-77
2023/04/17 02:46:55;;;;;;;4.80;4.20;;;;;;;5.73;100.00;96580.94;7399204;19;20361;-76
2023/04/17 02:49:22;;;;;;;5.10;3.50;;;;;;;5.80;100.00;96591.84;7400454;19;20440;-77
2023/04/17 02:51:49;;;;;;;3.43;3.00;;;;;;;5.73;100.00;96574.94;7396858;19;20373;-76
2023/04/17 02:54:16;;;;;;;4.00;3.00;;;;;;;5.66;100.00;96556.94;7396072;19;20416;-77
2023/04/17 02:56:44;;;;;;;4.03;3.60;;;;;;;5.81;100.00;96585.53;7398952;19;20368;-76
2023/04/17 02:59:12;;;;;;;3.67;3.30;;;;;;;5.61;100.00;96538.69;7397511;19;20397;-76
2023/04/17 03:01:39;;;;;;;5.70;3.87;;;;;;;5.92;100.00;96597.44;7399207;19;20481;-77
2023/04/17 03:04:06;;;;;;;4.00;3.60;;;;;;;5.76;100.00;96571.75;7396231;19;20497;-77
2023/04/17 03:06:33;;;;;;;3.80;3.43;;;;;;;5.88;100.00;96595.69;7400053;19;20357;-78
2023/04/17 03:09:02;;;;;;;3.70;2.93;;;;;;;5.73;100.00;96559.19;7397295;19;20393;-76
2023/04/17 03:11:29;;;;;;;3.80;3.37;;;;;;;5.80;100.00;96576.13;7396954;19;20384;-76
2023/04/17 03:13:56;;;;;;;3.40;2.80;;;;;;;5.76;100.00;96554.16;7395932;19;20914;-76
2023/04/17 03:16:23;;;;;;;3.67;3.27;;;;;;;5.84;100.00;96568.44;7398416;19;20758;-77
2023/04/17 03:18:51;;;;;;;3.83;3.50;;;;;;;5.68;100.00;96554.81;7396832;19;20471;-78
2023/04/17 03:21:19;;;;;;;3.30;3.00;;;;;;;5.94;100.00;96576.16;7398152;19;20964;-77
2023/04/17 03:23:47;;;;;;;3.00;2.80;;;;;;;5.88;100.00;96569.44;7396322;19;20424;-76
2023/04/17 03:26:15;;;;;;;2.90;2.70;;;;;;;5.53;100.00;96508.66;7398524;19;20369;-77
2023/04/17 03:28:42;;;;;;;3.20;2.90;;;;;;;5.81;100.00;96554.06;7396844;19;20393;-78
2023/04/17 03:31:09;;;;;;;4.03;3.70;;;;;;;5.86;100.00;96563.69;7396734;19;20997;-78
2023/04/17 03:33:37;;;;;;;4.60;4.17;;;;;;;5.90;100.00;96581.22;7396177;19;20433;-78
2023/04/17 03:36:04;;;;;;;3.77;3.40;;;;;;;5.72;100.00;96552.38;7397991;19;20389;-77
2023/04/17 03:38:35;;;;;;;3.60;3.27;;;;;;;5.97;100.00;96596.56;7396912;19;20764;-77
2023/04/17 03:41:04;;;;;;;6.50;3.47;;;;;;;5.60;100.00;96532.63;7398560;19;20472;-76
2023/04/17 03:43:31;;;;;;;6.33;4.20;;;;;;;5.54;100.00;96533.03;7396560;19;20416;-77
2023/04/17 03:45:58;;;;;;;3.43;3.13;;;;;;;5.81;100.00;96561.16;7398717;19;20443;-78
2023/04/17 03:48:26;;;;;;;3.37;2.97;;;;;;;5.88;100.00;96582.56;7396907;19;20421;-76
2023/04/17 03:50:53;;;;;;;3.10;2.80;;;;;;;5.89;100.00;96581.50;7395467;19;20532;-76
2023/04/17 03:53:21;;;;;;;3.40;3.10;;;;;;;5.88;100.00;96579.94;7396246;19;20416;-77
2023/04/17 03:55:49;;;;;;;3.60;3.20;;;;;;;5.55;100.00;96535.34;7398216;19;20397;-77
2023/04/17 03:58:26;;;;;;;3.93;3.63;;;;;;;5.91;100.00;96588.03;7397299;19;20447;-77
2023/04/17 04:00:54;;;;;;;4.30;3.80;;;;;;;5.80;100.00;96576.13;7395363;19;20368;-76
2023/04/17 04:03:25;;;;;;;3.70;3.40;;;;;;;5.91;100.00;96592.50;7396552;19;20915;-78
2023/04/17 04:05:52;;;;;;;3.90;3.50;;;;;;;5.78;100.00;96573.00;7395529;19;20921;-77
2023/04/17 04:08:19;;;;;;;4.23;3.83;;;;;;;6.07;100.00;96608.75;7396830;19;20666;-77
2023/04/17 04:10:50;;;;;;;6.13;4.93;;;;;;;5.95;100.00;96593.47;7394507;19;20392;-76
2023/04/17 04:13:22;;;;;;;6.83;4.37;;;;;;;5.97;100.00;96601.81;7396968;19;20416;-78
2023/04/17 04:15:55;;;;;;;5.70;4.43;;;;;;;5.75;100.00;96570.97;7395716;19;20492;-76
2023/04/17 04:18:25;;;;;;;3.70;3.40;;;;;;;6.06;100.00;96615.06;7396993;19;20408;-78
2023/04/17 04:20:52;;;;;;;4.13;3.60;;;;;;;5.87;100.00;96579.13;7396041;19;20784;-77
2023/04/17 04:23:26;;;;;;;4.10;3.30;;;;;;;6.16;100.00;96620.91;7397075;19;20424;-77
2023/04/17 04:25:56;;;;;;;3.80;3.40;;;;;;;6.02;100.00;96593.88;7395861;19;20345;-76
2023/04/17 04:28:33;;;;;;;5.67;4.73;;;;;;;6.11;100.00;96617.59;7394314;19;20964;-76
2023/04/17 04:31:01;;;;;;;4.30;3.80;;;;;;;6.01;100.00;96597.56;7395182;19;20352;-77
2023/04/17 04:33:34;;;;;;;3.40;3.10;;;;;;;6.16;100.00;96626.19;7394290;19;20439;-78
2023/04/17 04:36:01;;;;;;;5.10;3.37;;;;;;;6.06;100.00;96612.44;7396156;19;20389;-77
2023/04/17 04:38:31;;;;;;;3.73;3.43;;;;;;;6.00;100.00;96593.38;7394510;19;20939;-77
2023/04/17 04:41:09;;;;;;;5.43;4.33;;;;;;;6.21;100.00;96626.06;7396914;19;20391;-78
2023/04/17 04:43:37;;;;;;;3.90;3.40;;;;;;;6.00;100.00;96592.59;7394573;19;20929;-77
2023/04/17 04:46:07;;;;;;;4.30;3.60;;;;;;;5.95;100.00;96582.97;7396573;19;20394;-77
2023/04/17 04:48:39;;;;;;;3.60;3.30;;;;;;;6.22;100.00;96622.38;7395325;19;20465;-77
2023/04/17 04:51:08;;;;;;;3.60;3.30;;;;;;;6.17;100.00;96616.44;7392859;19;20839;-76
2023/04/17 04:53:37;;;;;;;4.27;3.87;;;;;;;6.26;100.00;96627.03;7394456;19;20449;-77
2023/04/17 04:56:04;;;;;;;4.47;3.50;;;;;;;6.34;100.00;96632.41;7394092;19;20401;-77
2023/04/17 04:58:33;;;;;;;3.60;3.30;;;;;;;6.19;100.00;96609.84;7395419;19;20479;-76
2023/04/17 05:01:01;;;;;;;3.83;3.47;;;;;;;6.19;100.00;96609.06;7393727;19;20409;-77
2023/04/17 05:03:37;;;;;;;4.40;4.00;;;;;;;6.32;100.00;96624.03;7394896;19;20450;-76
2023/04/17 05:06:05;;;;;;;3.57;3.23;;;;;;;6.06;100.00;96584.34;7393870;19;20940;-77
2023/04/17 05:08:39;;;;;;;4.93;3.23;;;;;;;6.29;100.00;96619.38;7395578;19;20392;-76
2023/04/17 05:11:13;;;;;;;3.43;3.13;;;;;;;6.30;100.00;96626.19;7393063;19;20392;-76
2023/04/17 05:13:41;;;;;;;4.30;3.90;;;;;;;6.22;100.00;96616.34;7395711;19;20782;-77
2023/04/17 05:16:14;;;;;;;4.10;3.70;;;;;;;6.30;100.00;96630.66;7394760;19;20400;-76
2023/04/17 05:18:43;;;;;;;4.20;3.80;;;;;;;6.28;100.00;96609.94;7393724;19;20440;-77
2023/04/17 05:21:13;;;;;;;4.47;3.70;;;;;;;6.51;100.00;96643.09;7394976;19;20740;-77
2023/04/17 05:23:40;;;;;;;4.30;3.90;;;;;;;6.58;100.00;96649.84;7392534;19;20428;-77
2023/04/17 05:26:07;;;;;;;3.97;3.60;;;;;;;5.42;100.00;96488.91;7396157;19;20373;-77
2023/04/17 05:28:34;;;;;;;4.07;3.47;;;;;;;6.13;100.00;96574.22;7392682;19;20351;-77
2023/04/17 05:31:02;;;;;;;4.60;4.10;;;;;;;6.23;100.00;96605.56;7390931;19;20368;-76
2023/04/17 05:33:36;;;;;;;4.30;3.90;;;;;;;6.39;100.00;96634.94;7392860;19;20419;-77
2023/04/17 05:36:05;;;;;;;5.70;5.20;;;;;;;6.56;100.00;96665.13;7394729;19;20402;-77
2023/04/17 05:38:35;;;;;;;5.30;4.80;;;;;;;6.42;100.00;96630.97;7393242;19;20405;-77
2023/04/17 05:41:08;;;;;;;4.57;4.17;;;;;;;6.43;100.00;96635.91;7394848;19;20815;-77
2023/04/17 05:43:36;;;;;;;6.50;5.90;;;;;;;6.65;100.00;96666.75;7393030;19;20512;-76
2023/04/17 05:46:03;;;;;;;5.53;5.03;;;;;;;6.56;100.00;96660.63;7395106;19;20903;-77
2023/04/17 05:48:30;;;;;;;6.63;5.03;;;;;;;6.55;100.00;96648.56;7393907;19;20379;-75
2023/04/17 05:50:57;;;;;;;6.50;5.87;;;;;;;6.74;100.00;96667.63;7394667;19;20412;-76
2023/04/17 05:53:24;;;;;;;7.10;5.90;;;;;;;6.63;100.00;96649.72;7393029;19;20416;-75
2023/04/17 05:55:54;;;;;;;6.80;6.20;;;;;;;6.76;100.00;96675.22;7395339;19;20384;-75
2023/04/17 05:58:21;;;;;;;8.07;7.00;;;;;;;6.78;100.00;96668.59;7393331;19;20397;-76
2023/04/17 06:00:54;;;;;;;7.93;6.83;;;;;;;6.77;100.00;96659.16;7392233;19;20437;-75
2023/04/17 06:03:22;;;;;;;7.30;6.47;;;;;;;6.61;100.00;96623.75;7393247;19;20507;-76
2023/04/17 06:05:56;;;;;;;10.07;8.63;;;;;;;6.86;100.00;96671.63;7392178;19;20715;-75
2023/04/17 06:08:23;;;;;;;8.60;6.50;;;;;;;6.52;100.00;96621.03;7393601;19;20924;-75
2023/04/17 06:10:51;;;;;;;10.80;8.57;;;;;;;6.71;100.00;96646.44;7392004;19;20400;-76
2023/04/17 06:13:18;;;;;;;7.93;6.13;;;;;;;6.80;100.00;96658.56;7393655;19;20404;-76
2023/04/17 06:15:49;;;;;;;12.37;8.33;;;;;;;6.71;100.00;96644.56;7399831;19;20401;-76
2023/04/17 06:18:16;;;;;;;11.50;8.63;;;;;;;6.73;100.00;96650.31;7401203;19;20744;-76
2023/04/17 06:20:44;;;;;;;8.33;7.00;;;;;;;6.93;100.00;96682.50;7399622;19;20404;-76
2023/04/17 06:23:11;;;;;;;9.80;7.20;;;;;;;6.87;100.00;96691.56;7400462;19;20392;-76
2023/04/17 06:25:38;;;;;;;7.70;6.17;;;;;;;6.89;100.00;96681.53;7399946;19;20386;-76
2023/04/17 06:28:05;;;;;;;8.57;5.93;;;;;;;6.61;100.00;96649.25;7401008;19;20400;-76
2023/04/17 06:30:33;;;;;;;8.30;6.67;;;;;;;6.82;100.00;96669.59;7399238;19;20777;-76
2023/04/17 06:33:01;;;;;;;7.93;6.63;;;;;;;6.81;100.00;96677.75;7400644;19;20373;-76
2023/04/17 06:35:28;;;;;;;6.70;5.80;;;;;;;6.55;100.00;96626.78;7399632;19;20372;-76
2023/04/17 06:38:02;;;;;;;8.40;6.10;;;;;;;7.09;100.00;96697.69;7401008;19;20380;-76
2023/04/17 06:40:29;;;;;;;6.20;5.60;;;;;;;6.90;100.00;96667.31;7399716;19;20401;-76
2023/04/17 06:42:56;;;;;;;6.60;4.50;;;;;;;7.11;100.00;96706.06;7397884;19;20413;-76
2023/04/17 06:45:26;;;;;;;6.00;5.30;;;;;;;7.04;100.00;96676.75;7399591;19;20364;-76
2023/04/17 06:47:53;;;;;;;5.00;4.10;;;;;;;7.25;100.00;96692.91;7398205;19;20386;-76
2023/04/17 06:50:20;;;;;;;4.03;3.50;;;;;;;7.11;100.00;96682.41;7399658;19;20381;-76
2023/04/17 06:52:47;;;;;;;5.03;3.90;;;;;;;7.20;100.00;96686.94;7395824;19;20491;-76
2023/04/17 06:55:14;;;;;;;3.53;2.90;;;;;;;7.19;100.00;96688.81;7398570;19;20403;-76
2023/04/17 06:57:41;;;;;;;5.43;3.30;;;;;;;7.11;100.00;96679.78;7397932;19;20411;-76
2023/04/17 07:00:08;;;;;;;5.00;3.80;;;;;;;7.35;100.00;96713.72;7399393;19;20420;-76
2023/04/17 07:02:35;;;;;;;2.63;2.43;;;;;;;7.24;100.00;96709.75;7397932;19;20388;-76
2023/04/17 07:05:06;;;;;;;3.23;2.50;;;;;;;7.34;100.00;96724.53;7396895;19;20401;-76
2023/04/17 07:07:34;;;;;;;2.60;2.40;;;;;;;7.49;100.00;96728.72;7399237;19;20349;-76
2023/04/17 07:10:03;;;;;;;2.87;2.10;;;;;;;7.54;100.00;96721.47;7399506;19;20376;-76
2023/04/17 07:12:30;;;;;;;3.73;2.90;;;;;;;7.31;100.00;96707.47;7396350;19;20387;-76
2023/04/17 07:14:56;;;;;;;1.50;1.40;;;;;;;7.57;100.00;96706.94;7397473;19;20425;-76
2023/04/17 07:17:24;;;;;;;1.80;1.70;;;;;;;7.65;100.00;96701.75;7397876;19;20384;-76
2023/04/17 07:19:51;;;;;;;2.00;1.80;;;;;;;8.04;100.00;96731.16;7399691;19;20392;-76
2023/04/17 07:22:18;;;;;;;2.43;1.80;;;;;;;8.03;100.00;96737.50;7397323;19;20388;-76
2023/04/17 07:24:45;;;;;;;2.10;2.00;;;;;;;7.90;100.00;96733.84;7397163;19;20424;-76
2023/04/17 07:27:11;;;;;;;1.50;1.40;;;;;;;8.08;100.00;96735.53;7398824;19;20420;-76
2023/04/17 07:29:38;;;;;;;1.70;1.60;;;;;;;7.90;100.00;96708.31;7399014;19;20413;-76
2023/04/17 07:32:06;;;;;;;1.57;1.47;;;;;;;7.94;100.00;96740.84;7395801;19;20746;-76
2023/04/17 07:34:33;;;;;;;2.00;1.37;;;;;;;8.08;100.00;96746.06;7397764;19;20484;-76
2023/04/17 07:37:00;;;;;;;1.97;1.83;;;;;;;8.01;100.00;96721.97;7397622;19;20745;-76
2023/04/17 07:39:30;;;;;;;3.80;1.80;;;;;;;7.76;100.00;96660.19;7398628;19;20404;-76
2023/04/17 07:41:57;;;;;;;1.83;1.67;;;;;;;8.26;100.00;96736.41;7397767;19;20361;-76
2023/04/17 07:44:24;;;;;;;1.20;1.10;;;;;;;8.39;100.00;96756.66;7398886;19;20396;-76
2023/04/17 07:46:51;;;;;;;1.30;1.10;;;;;;;7.93;100.00;96727.97;7397021;19;20386;-75
2023/04/17 07:49:18;;;;;;;1.60;1.50;;;;;;;7.91;100.00;96727.50;7398560;19;20379;-76
2023/04/17 07:51:44;;;;;;;1.40;1.30;;;;;;;8.11;100.00;96729.66;7397023;19;20756;-76
2023/04/17 07:54:12;;;;;;;1.33;1.23;;;;;;;8.20;100.00;96766.59;7399088;19;21015;-77
2023/04/17 07:56:39;;;;;;;1.10;1.00;;;;;;;8.36;100.00;96765.16;7397187;19;20469;-77
2023/04/17 07:59:06;;;;;;;1.33;1.23;;;;;;;8.40;100.00;96765.34;7398559;19;20423;-77
2023/04/17 08:01:32;;;;;;;1.67;1.57;;;;;;;8.24;100.00;96741.97;7396867;19;20396;-77
2023/04/17 08:03:59;;;;;;;1.67;1.30;;;;;;;8.26;100.00;96746.94;7397772;19;20464;-77
2023/04/17 08:06:27;;;;;;;1.53;1.40;;;;;;;8.13;100.00;96735.38;7398579;19;20925;-77
2023/04/17 08:08:54;;;;;;;1.60;1.50;;;;;;;8.20;100.00;96740.25;7399799;19;20381;-77
2023/04/17 08:11:21;;;;;;;1.30;1.20;;;;;;;8.30;100.00;96774.25;7396051;19;20780;-77
2023/04/17 08:13:48;;;;;;;1.63;1.53;;;;;;;8.38;100.00;96776.19;7395802;19;20405;-77
2023/04/17 08:16:14;;;;;;;1.73;1.63;;;;;;;8.67;100.00;96773.09;7396213;19;20980;-77
2023/04/17 08:18:42;;;;;;;1.73;1.60;;;;;;;8.55;100.00;96776.31;7394885;19;20360;-77
2023/04/17 08:21:08;;;;;;;1.50;1.40;;;;;;;8.56;100.00;96779.72;7397890;19;20393;-77
2023/04/17 08:23:35;;;;;;;1.30;1.20;;;;;;;8.75;100.00;96761.81;7394506;19;20445;-77
2023/04/17 08:26:02;;;;;;;1.30;1.20;;;;;;;8.56;100.00;96734.91;7397870;19;20389;-77
2023/04/17 08:28:30;;;;;;;1.40;1.30;;;;;;;8.82;100.00;96761.41;7394988;19;20393;-77
2023/04/17 08:30:57;;;;;;;1.67;1.57;;;;;;;8.38;100.00;96749.06;7396575;19;20373;-77
2023/04/17 08:33:25;;;;;;;1.40;1.30;;;;;;;8.62;100.00;96788.28;7394930;19;20404;-77
2023/04/17 08:35:52;;;;;;;1.70;1.60;;;;;;;8.64;100.00;96757.13;7397738;19;20449;-77
2023/04/17 08:38:19;;;;;;;1.90;1.80;;;;;;;8.55;100.00;96771.03;7393879;19;20960;-77
2023/04/17 08:40:50;;;;;;;1.93;1.27;;;;;;;8.53;100.00;96796.13;7397898;19;20377;-77
2023/04/17 08:43:19;;;;;;;1.67;1.57;;;;;;;8.26;100.00;96766.16;7395215;19;20483;-77
2023/04/17 08:45:54;;;;;;;1.20;1.10;;;;;;;8.26;100.00;96768.78;7396601;19;20931;-77
2023/04/17 08:48:22;;;;;;;1.50;1.40;;;;;;;8.63;100.00;96784.56;7395795;19;20471;-77
2023/04/17 08:50:51;;;;;;;2.03;1.53;;;;;;;8.88;100.00;96792.59;7397496;19;20380;-77
2023/04/17 08:53:20;;;;;;;1.57;1.47;;;;;;;9.00;100.00;96786.75;7393789;19;20429;-77
2023/04/17 08:55:47;;;;;;;2.03;1.50;;;;;;;8.95;100.00;96754.44;7397061;19;20373;-78
2023/04/17 08:58:14;;;;;;;2.10;1.57;;;;;;;9.18;100.00;96788.38;7396553;19;20353;-77
2023/04/17 09:00:43;;;;;;;1.37;1.27;;;;;;;8.90;100.00;96794.94;7397280;19;20401;-77
2023/04/17 09:03:12;;;;;;;1.90;1.60;;;;;;;8.65;100.00;96762.09;7396615;19;20348;-78
2023/04/17 09:05:44;;;;;;;1.40;1.30;;;;;;;8.64;100.00;96754.47;7394094;19;20376;-77
2023/04/17 09:08:14;;;;;;;1.80;1.70;;;;;;;8.67;100.00;96782.88;7395859;19;20385;-77
2023/04/17 09:10:52;;;;;;;1.90;1.53;;;;;;;8.32;100.00;96792.41;7394004;19;20389;-77
2023/04/17 09:13:24;;;;;;;1.50;1.40;;;;;;;8.32;100.00;96798.44;7394418;19;20412;-77
2023/04/17 09:16:20;;;;;;;1.37;1.27;;;;;;;8.39;100.00;96790.91;7396026;19;20384;-77
2023/04/17 09:18:48;;;;;;;1.63;1.53;;;;;;;8.08;100.00;96743.41;7392845;19;20408;-77
2023/04/17 09:21:17;;;;;;;1.80;1.70;;;;;;;8.39;100.00;96792.78;7395236;19;20965;-77
2023/04/17 09:23:48;;;;;;;1.40;1.30;;;;;;;8.25;100.00;96788.31;7392758;19;20944;-77
2023/04/17 09:26:23;;;;;;;1.63;1.53;;;;;;;8.45;100.00;96796.84;7395287;19;20368;-77
2023/04/17 09:29:10;;;;;;;1.53;1.43;;;;;;;8.00;100.00;96765.19;7395310;19;20369;-77
2023/04/17 09:31:41;;;;;;;2.03;1.77;;;;;;;8.36;100.00;96804.69;7393097;19;20389;-78
2023/04/17 09:34:12;;;;;;;1.63;1.47;;;;;;;8.26;100.00;96775.91;7393602;19;20425;-77
2023/04/17 09:36:40;;;;;;;1.50;1.40;;;;;;;8.37;100.00;96787.81;7393749;19;20373;-77
2023/04/17 09:39:19;;;;;;;1.50;1.40;;;;;;;8.32;100.00;96766.06;7396686;19;20373;-77
2023/04/17 09:41:46;;;;;;;1.70;1.60;;;;;;;8.52;100.00;96789.28;7393787;19;20732;-77
2023/04/17 09:44:27;;;;;;;1.30;1.20;;;;;;;8.46;100.00;96793.91;7395835;19;20409;-77
2023/04/17 09:46:54;;;;;;;1.50;1.40;;;;;;;8.48;100.00;96778.59;7393596;19;20400;-76
2023/04/17 09:49:41;;;;;;;1.47;1.37;;;;;;;8.76;100.00;96807.41;7395750;19;20374;-75
2023/04/17 09:52:08;;;;;;;1.50;1.40;;;;;;;8.70;100.00;96787.56;7399797;19;20373;-76
2023/04/17 09:54:38;;;;;;;2.03;1.57;;;;;;;8.70;100.00;96793.59;7398177;19;20803;-76
2023/04/17 09:57:07;;;;;;;1.57;1.47;;;;;;;8.76;100.00;96807.41;7401697;19;20378;-76
2023/04/17 09:59:44;;;;;;;1.60;1.50;;;;;;;8.56;100.00;96767.31;7400176;19;20369;-77
2023/04/17 10:02:18;;;;;;;1.90;1.77;;;;;;;8.87;100.00;96798.97;7402373;19;20360;-76
2023/04/17 10:04:46;;;;;;;2.07;1.60;;;;;;;8.91;100.00;96808.88;7400627;19;20727;-76
2023/04/17 10:07:15;;;;;;;1.57;1.40;;;;;;;9.17;100.00;96815.84;7403704;19;20420;-77
2023/04/17 10:09:46;;;;;;;1.60;1.37;;;;;;;9.01;100.00;96780.41;7400508;19;20722;-76
2023/04/17 10:12:15;;;;;;;1.20;1.10;;;;;;;9.26;100.00;96802.69;7400099;19;20380;-76
2023/04/17 10:14:45;;;;;;;2.33;1.30;;;;;;;9.04;100.00;96771.09;7399024;19;20797;-77
2023/04/17 10:17:36;;;;;;;1.83;1.73;;;;;;;9.20;100.00;96801.25;7399286;19;20389;-76
2023/04/17 10:20:21;;;;;;;1.73;1.63;;;;;;;9.30;100.00;96794.94;7403687;19;20774;-76
2023/04/17 10:22:54;;;;;;;1.40;1.30;;;;;;;9.32;100.00;96803.31;7400861;19;20740;-79
2023/04/17 10:25:28;;;;;;;1.07;0.97;;;;;;;8.95;100.00;96789.53;7399543;19;20373;-76
2023/04/17 10:28:00;;;;;;;1.20;1.10;;;;;;;9.17;100.00;96791.31;7399867;19;20419;-77
2023/04/17 10:30:54;;;;;;;1.60;1.50;;;;;;;9.15;100.00;96798.75;7399671;19;20364;-76
2023/04/17 10:33:26;;;;;;;1.70;1.30;;;;;;;8.95;100.00;96757.09;7397334;19;20456;-76
2023/04/17 10:35:53;;;;;;;1.10;1.00;;;;;;;9.27;100.00;96798.97;7400070;19;20718;-76
2023/04/17 10:38:34;;;;;;;1.63;1.40;;;;;;;9.09;100.00;96787.59;7399880;19;20390;-77
2023/04/17 10:41:03;;;;;;;1.77;1.13;;;;;;;8.94;100.00;96774.78;7400657;19;20896;-77
2023/04/17 10:43:30;;;;;;;1.13;1.00;;;;;;;9.08;100.00;96786.03;7398716;19;20420;-76
2023/04/17 10:46:04;;;;;;;1.20;1.10;;;;;;;9.23;100.00;96792.75;7402150;19;20381;-76
2023/04/17 10:48:37;;;;;;;1.33;1.23;;;;;;;9.28;100.00;96791.81;7399163;19;20405;-77
2023/04/17 10:51:23;;;;;;;1.67;1.57;;;;;;;9.44;100.00;96787.66;7397766;19;20711;-77
2023/04/17 10:54:00;;;;;;;2.00;1.80;;;;;;;9.17;100.00;96764.94;7399344;19;20397;-76
2023/04/17 10:56:31;;;;;;;1.47;1.37;;;;;;;9.34;100.00;96798.50;7398989;19;20372;-76
2023/04/17 10:59:03;;;;;;;1.83;1.27;;;;;;;9.01;100.00;96754.03;7400269;19;20424;-78
2023/04/17 11:01:38;;;;;;;1.20;1.10;;;;;;;9.21;100.00;96781.69;7398427;19;20931;-76
2023/04/17 11:04:07;;;;;;;1.57;1.47;;;;;;;8.94;100.00;96781.91;7396357;19;20727;-77
2023/04/17 11:06:38;;;;;;;1.60;1.27;;;;;;;8.96;100.00;96777.91;7398652;19;20388;-77
2023/04/17 11:09:08;;;;;;;1.10;1.00;;;;;;;8.94;100.00;96766.88;7399057;19;20376;-76
2023/04/17 11:11:40;;;;;;;1.50;1.40;;;;;;;8.98;100.00;96790.78;7399306;19;20380;-76
2023/04/17 11:14:13;;;;;;;0.97;0.90;;;;;;;8.59;100.00;96718.50;7395697;19;20460;-76
2023/04/17 11:16:42;;;;;;;0.90;0.90;;;;;;;8.76;100.00;96760.75;7399644;19;20901;-77
2023/04/17 11:19:11;;;;;;;1.30;1.00;;;;;;;8.80;100.00;96777.50;7399851;19;21232;-76
2023/04/17 11:21:41;;;;;;;1.10;1.00;;;;;;;8.97;100.00;96781.31;7399755;19;20419;-76
2023/04/17 11:24:09;;;;;;;1.10;0.90;;;;;;;9.14;100.00;96784.78;7397055;19;20489;-77
2023/04/17 11:26:46;;;;;;;1.10;0.90;;;;;;;9.37;100.00;96785.50;7400992;19;20341;-76
2023/04/17 11:29:21;;;;;;;1.50;1.40;;;;;;;8.90;100.00;96747.47;7398030;19;20372;-78
2023/04/17 11:31:50;;;;;;;1.00;1.00;;;;;;;9.40;100.00;96784.09;7397103;19;20392;-77
2023/04/17 11:34:18;;;;;;;1.20;0.80;;;;;;;9.50;100.00;96759.28;7396316;19;20396;-76
2023/04/17 11:36:49;;;;;;;1.83;1.20;;;;;;;9.78;100.00;96760.56;7397241;19;20391;-76
2023/04/17 11:39:18;;;;;;;1.40;1.30;;;;;;;10.30;100.00;96792.31;7399887;19;20500;-76
2023/04/17 11:41:45;;;;;;;0.80;0.80;;;;;;;10.55;100.00;96749.19;7397767;19;20889;-76
2023/04/17 11:44:13;;;;;;;1.07;0.97;;;;;;;11.71;100.00;96769.19;7398770;19;20828;-76